createdAt,value
2024-02-19T00:00:01.692Z,7.63
2024-02-19T00:01:01.333Z,7.71
2024-02-19T00:02:01.349Z,7.69
2024-02-19T00:03:01.265Z,7.70
2024-02-19T00:04:01.276Z,7.73
2024-02-19T00:05:01.285Z,7.77
2024-02-19T00:06:01.195Z,7.86
2024-02-19T00:07:01.522Z,7.86
2024-02-19T00:08:01.308Z,7.89
2024-02-19T00:09:01.201Z,7.89
2024-02-19T00:10:01.240Z,7.86
2024-02-19T00:11:01.183Z,7.89
2024-02-19T00:12:01.159Z,7.92
2024-02-19T00:13:01.142Z,7.95
2024-02-19T00:14:01.276Z,7.94
2024-02-19T00:15:01.163Z,7.99
2024-02-19T00:16:01.084Z,8.02
2024-02-19T00:17:01.270Z,7.95
2024-02-19T00:18:01.079Z,7.99
2024-02-19T00:19:01.219Z,7.95
2024-02-19T00:20:01.123Z,7.96
2024-02-19T00:21:01.020Z,7.95
2024-02-19T00:22:01.068Z,7.95
2024-02-19T00:23:00.998Z,7.99
2024-02-19T00:24:00.963Z,7.96
2024-02-19T00:25:01.047Z,7.99
2024-02-19T00:26:00.959Z,8.02
2024-02-19T00:27:01.077Z,7.96
2024-02-19T00:28:00.985Z,7.99
2024-02-19T00:29:01.284Z,8.00
2024-02-19T00:30:01.313Z,7.96
2024-02-19T00:31:00.921Z,7.96
2024-02-19T00:32:00.890Z,8.06
2024-02-19T00:33:01.058Z,7.92
2024-02-19T00:34:01.174Z,7.96
2024-02-19T00:35:01.577Z,8.03
2024-02-19T00:36:00.811Z,8.00
2024-02-19T00:37:00.851Z,7.99
2024-02-19T00:38:00.812Z,7.94
2024-02-19T00:39:01.557Z,7.94
2024-02-19T00:40:00.876Z,8.03
2024-02-19T00:41:01.556Z,7.96
2024-02-19T00:42:00.729Z,7.92
2024-02-19T00:43:00.805Z,7.92
2024-02-19T00:44:01.526Z,7.95
2024-02-19T00:45:01.735Z,7.99
2024-02-19T00:46:00.745Z,7.91
2024-02-19T00:47:00.744Z,8.00
2024-02-19T00:48:00.714Z,7.92
2024-02-19T00:49:00.837Z,7.96
2024-02-19T00:50:00.975Z,7.96
2024-02-19T00:51:00.667Z,7.99
2024-02-19T00:52:00.642Z,7.96
2024-02-19T00:53:00.606Z,7.99
2024-02-19T00:54:00.574Z,7.99
2024-02-19T00:55:00.670Z,7.96
2024-02-19T00:56:00.572Z,7.94
2024-02-19T00:57:00.556Z,7.92
2024-02-19T00:58:01.491Z,7.92
2024-02-19T00:59:00.566Z,7.96
2024-02-19T01:00:01.269Z,7.92
2024-02-19T01:01:01.529Z,7.92
2024-02-19T01:02:00.628Z,7.92
2024-02-19T01:03:00.647Z,7.91
2024-02-19T01:04:00.638Z,7.92
2024-02-19T01:05:00.882Z,7.91
2024-02-19T01:06:00.470Z,7.88
2024-02-19T01:07:00.489Z,7.88
2024-02-19T01:08:00.492Z,7.86
2024-02-19T01:09:00.404Z,7.85
2024-02-19T01:10:00.479Z,7.94
2024-02-19T01:11:00.526Z,7.86
2024-02-19T01:12:00.675Z,7.84
2024-02-19T01:13:00.382Z,7.84
2024-02-19T01:14:00.388Z,7.86
2024-02-19T01:15:00.433Z,7.81
2024-02-19T01:16:01.720Z,7.84
2024-02-19T01:17:01.090Z,7.81
2024-02-19T01:18:00.349Z,7.85
2024-02-19T01:19:00.695Z,7.86
2024-02-19T01:20:00.728Z,7.81
2024-02-19T01:21:00.258Z,7.84
2024-02-19T01:22:00.330Z,7.79
2024-02-19T01:23:00.498Z,7.74
2024-02-19T01:24:01.014Z,7.79
2024-02-19T01:25:01.187Z,7.76
2024-02-19T01:26:00.197Z,7.77
2024-02-19T01:27:00.158Z,7.76
2024-02-19T01:28:00.231Z,7.76
2024-02-19T01:29:00.116Z,7.76
2024-02-19T01:30:00.142Z,7.76
2024-02-19T01:31:00.965Z,7.73
2024-02-19T01:32:00.145Z,7.69
2024-02-19T01:33:00.116Z,7.70
2024-02-19T01:34:00.162Z,7.71
2024-02-19T01:35:00.232Z,7.69
2024-02-19T01:36:00.066Z,7.70
2024-02-19T01:37:00.115Z,7.71
2024-02-19T01:38:00.079Z,7.76
2024-02-19T01:38:59.988Z,7.73
2024-02-19T01:40:00.086Z,7.70
2024-02-19T01:40:59.968Z,7.71
2024-02-19T01:41:59.971Z,7.76
2024-02-19T01:42:59.990Z,7.71
2024-02-19T01:43:59.983Z,7.70
2024-02-19T01:45:00.140Z,7.67
2024-02-19T01:45:59.969Z,7.66
2024-02-19T01:47:00.189Z,7.67
2024-02-19T01:47:59.987Z,7.63
2024-02-19T01:49:00.830Z,7.66
2024-02-19T01:49:59.960Z,7.66
2024-02-19T01:50:59.846Z,7.63
2024-02-19T01:52:01.649Z,7.58
2024-02-19T01:53:21.140Z,7.62
2024-02-19T01:54:00.136Z,7.57
2024-02-19T01:55:01.713Z,7.58
2024-02-19T01:56:01.577Z,7.60
2024-02-19T01:57:00.551Z,7.54
2024-02-19T01:58:00.566Z,7.51
2024-02-19T01:59:01.532Z,7.58
2024-02-19T02:00:04.470Z,7.52
2024-02-19T02:00:59.998Z,7.50
2024-02-19T02:02:09.822Z,7.50
2024-02-19T02:03:01.547Z,7.54
2024-02-19T02:04:01.477Z,7.52
2024-02-19T02:04:59.677Z,7.55
2024-02-19T02:05:59.790Z,7.51
2024-02-19T02:06:59.727Z,7.55
2024-02-19T02:08:00.474Z,7.51
2024-02-19T02:08:59.692Z,7.48
2024-02-19T02:09:59.637Z,7.48
2024-02-19T02:10:59.652Z,7.44
2024-02-19T02:11:59.637Z,7.47
2024-02-19T02:12:59.595Z,7.45
2024-02-19T02:13:59.601Z,7.47
2024-02-19T02:14:59.548Z,7.42
2024-02-19T02:15:59.527Z,7.42
2024-02-19T02:16:59.523Z,7.44
2024-02-19T02:17:59.521Z,7.45
2024-02-19T02:19:00.622Z,7.44
2024-02-19T02:19:59.643Z,7.45
2024-02-19T02:20:59.465Z,7.39
2024-02-19T02:21:59.529Z,7.41
2024-02-19T02:22:59.445Z,7.39
2024-02-19T02:24:07.197Z,7.39
2024-02-19T02:24:59.489Z,7.41
2024-02-19T02:25:59.660Z,7.36
2024-02-19T02:26:59.382Z,7.37
2024-02-19T02:27:59.712Z,7.33
2024-02-19T02:29:00.149Z,7.36
2024-02-19T02:29:59.790Z,7.34
2024-02-19T02:31:00.200Z,7.30
2024-02-19T02:32:00.134Z,7.33
2024-02-19T02:33:00.473Z,7.32
2024-02-19T02:33:59.960Z,7.30
2024-02-19T02:34:59.680Z,7.29
2024-02-19T02:36:00.012Z,7.26
2024-02-19T02:37:01.110Z,7.24
2024-02-19T02:38:01.013Z,7.24
2024-02-19T02:39:01.061Z,7.23
2024-02-19T02:39:59.536Z,7.19
2024-02-19T02:41:03.929Z,7.18
2024-02-19T02:42:00.234Z,7.16
2024-02-19T02:43:00.997Z,7.12
2024-02-19T02:44:00.000Z,7.12
2024-02-19T02:44:59.166Z,7.12
2024-02-19T02:46:01.134Z,7.11
2024-02-19T02:47:04.075Z,7.07
2024-02-19T02:47:59.880Z,7.05
2024-02-19T02:49:00.213Z,7.01
2024-02-19T02:49:59.378Z,7.04
2024-02-19T02:50:59.875Z,7.00
2024-02-19T02:51:59.108Z,6.97
2024-02-19T02:52:59.918Z,6.91
2024-02-19T02:53:59.033Z,6.93
2024-02-19T02:54:59.064Z,6.91
2024-02-19T02:55:59.808Z,6.89
2024-02-19T02:56:59.785Z,6.91
2024-02-19T02:57:59.981Z,6.87
2024-02-19T02:58:59.840Z,6.86
2024-02-19T02:59:58.978Z,6.86
2024-02-19T03:00:59.057Z,6.86
2024-02-19T03:01:59.083Z,6.83
2024-02-19T03:02:59.744Z,6.82
2024-02-19T03:03:59.030Z,6.82
2024-02-19T03:04:59.099Z,6.86
2024-02-19T03:05:59.115Z,6.79
2024-02-19T03:06:59.016Z,6.79
2024-02-19T03:07:59.255Z,6.79
2024-02-19T03:08:58.906Z,6.79
2024-02-19T03:09:58.891Z,6.76
2024-02-19T03:10:58.873Z,6.78
2024-02-19T03:11:58.817Z,6.75
2024-02-19T03:12:58.873Z,6.73
2024-02-19T03:13:58.834Z,6.72
2024-02-19T03:14:58.818Z,6.73
2024-02-19T03:15:58.803Z,6.69
2024-02-19T03:16:58.736Z,6.71
2024-02-19T03:17:58.824Z,6.71
2024-02-19T03:18:58.958Z,6.68
2024-02-19T03:19:58.844Z,6.69
2024-02-19T03:20:58.721Z,6.68
2024-02-19T03:21:58.666Z,6.65
2024-02-19T03:22:58.682Z,6.64
2024-02-19T03:23:58.664Z,6.71
2024-02-19T03:24:58.705Z,6.71
2024-02-19T03:25:58.682Z,6.68
2024-02-19T03:26:58.615Z,6.65
2024-02-19T03:27:58.618Z,6.63
2024-02-19T03:28:58.582Z,6.64
2024-02-19T03:29:58.555Z,6.61
2024-02-19T03:30:58.786Z,6.63
2024-02-19T03:31:58.584Z,6.61
2024-02-19T03:32:58.771Z,6.63
2024-02-19T03:33:58.903Z,6.61
2024-02-19T03:34:58.778Z,6.60
2024-02-19T03:35:58.500Z,6.61
2024-02-19T03:36:58.578Z,6.60
2024-02-19T03:37:58.484Z,6.55
2024-02-19T03:38:58.867Z,6.54
2024-02-19T03:39:58.844Z,6.53
2024-02-19T03:40:58.462Z,6.51
2024-02-19T03:41:58.448Z,6.50
2024-02-19T03:42:59.258Z,6.51
2024-02-19T03:43:58.483Z,6.48
2024-02-19T03:44:58.536Z,6.46
2024-02-19T03:45:59.345Z,6.45
2024-02-19T03:47:00.779Z,6.42
2024-02-19T03:47:58.731Z,6.40
2024-02-19T03:48:59.811Z,6.43
2024-02-19T03:49:59.322Z,6.40
2024-02-19T03:50:58.827Z,6.42
2024-02-19T03:51:58.602Z,6.39
2024-02-19T03:52:58.721Z,6.39
2024-02-19T03:53:58.735Z,6.38
2024-02-19T03:54:58.753Z,6.33
2024-02-19T03:55:58.726Z,6.35
2024-02-19T03:56:58.976Z,6.35
2024-02-19T03:57:58.742Z,6.36
2024-02-19T03:58:58.722Z,6.33
2024-02-19T03:59:59.034Z,6.36
2024-02-19T04:00:58.798Z,6.38
2024-02-19T04:01:58.770Z,6.36
2024-02-19T04:02:58.743Z,6.36
2024-02-19T04:03:58.769Z,6.42
2024-02-19T04:04:58.775Z,6.36
2024-02-19T04:05:58.856Z,6.38
2024-02-19T04:06:58.848Z,6.36
2024-02-19T04:07:58.822Z,6.39
2024-02-19T04:08:58.520Z,6.38
2024-02-19T04:09:58.759Z,6.38
2024-02-19T04:10:58.472Z,6.33
2024-02-19T04:11:58.764Z,6.38
2024-02-19T04:12:58.746Z,6.35
2024-02-19T04:13:58.701Z,6.39
2024-02-19T04:14:58.734Z,6.39
2024-02-19T04:15:58.756Z,6.38
2024-02-19T04:16:58.728Z,6.38
2024-02-19T04:17:58.812Z,6.40
2024-02-19T04:18:58.795Z,6.40
2024-02-19T04:19:58.777Z,6.39
2024-02-19T04:20:58.726Z,6.40
2024-02-19T04:21:57.938Z,6.39
2024-02-19T04:22:57.917Z,6.40
2024-02-19T04:23:57.957Z,6.38
2024-02-19T04:24:58.032Z,6.36
2024-02-19T04:25:58.033Z,6.42
2024-02-19T04:26:58.084Z,6.39
2024-02-19T04:27:58.141Z,6.40
2024-02-19T04:28:58.152Z,6.38
2024-02-19T04:29:58.187Z,6.39
2024-02-19T04:30:58.327Z,6.39
2024-02-19T04:31:58.283Z,6.40
2024-02-19T04:32:58.397Z,6.36
2024-02-19T04:33:58.494Z,6.39
2024-02-19T04:34:58.075Z,6.40
2024-02-19T04:35:58.398Z,6.42
2024-02-19T04:36:57.967Z,6.38
2024-02-19T04:37:58.450Z,6.40
2024-02-19T04:38:58.501Z,6.39
2024-02-19T04:39:58.622Z,6.40
2024-02-19T04:40:58.495Z,6.42
2024-02-19T04:41:58.676Z,6.43
2024-02-19T04:42:58.619Z,6.38
2024-02-19T04:43:58.461Z,6.40
2024-02-19T04:44:58.734Z,6.43
2024-02-19T04:45:58.539Z,6.42
2024-02-19T04:46:58.448Z,6.43
2024-02-19T04:47:58.773Z,6.40
2024-02-19T04:48:58.593Z,6.38
2024-02-19T04:49:58.502Z,6.39
2024-02-19T04:50:58.762Z,6.42
2024-02-19T04:51:58.532Z,6.40
2024-02-19T04:52:58.784Z,6.38
2024-02-19T04:53:58.271Z,6.38
2024-02-19T04:54:58.448Z,6.38
2024-02-19T04:55:58.356Z,6.38
2024-02-19T04:56:58.287Z,6.36
2024-02-19T04:57:58.433Z,6.36
2024-02-19T04:58:57.999Z,6.35
2024-02-19T04:59:57.421Z,6.38
2024-02-19T05:00:57.531Z,6.35
2024-02-19T05:01:57.543Z,6.36
2024-02-19T05:02:57.398Z,6.35
2024-02-19T05:03:57.586Z,6.36
2024-02-19T05:04:57.593Z,6.35
2024-02-19T05:05:57.550Z,6.33
2024-02-19T05:06:57.548Z,6.38
2024-02-19T05:07:57.547Z,6.36
2024-02-19T05:08:57.604Z,6.38
2024-02-19T05:09:57.652Z,6.35
2024-02-19T05:10:57.740Z,6.35
2024-02-19T05:11:57.719Z,6.35
2024-02-19T05:12:57.796Z,6.35
2024-02-19T05:13:57.789Z,6.35
2024-02-19T05:14:57.896Z,6.36
2024-02-19T05:15:57.858Z,6.33
2024-02-19T05:16:57.435Z,6.33
2024-02-19T05:17:58.017Z,6.38
2024-02-19T05:18:58.017Z,6.35
2024-02-19T05:19:58.047Z,6.32
2024-02-19T05:20:58.125Z,6.35
2024-02-19T05:21:57.256Z,6.30
2024-02-19T05:22:57.359Z,6.32
2024-02-19T05:23:57.959Z,6.32
2024-02-19T05:24:57.852Z,6.32
2024-02-19T05:25:58.006Z,6.30
2024-02-19T05:26:57.947Z,6.30
2024-02-19T05:27:57.076Z,6.30
2024-02-19T05:28:57.991Z,6.32
2024-02-19T05:29:57.871Z,6.32
2024-02-19T05:30:57.059Z,6.35
2024-02-19T05:31:57.173Z,6.30
2024-02-19T05:32:57.605Z,6.30
2024-02-19T05:33:57.329Z,6.28
2024-02-19T05:34:57.013Z,6.28
2024-02-19T05:35:57.818Z,6.30
2024-02-19T05:36:57.013Z,6.33
2024-02-19T05:37:56.989Z,6.30
2024-02-19T05:38:56.921Z,6.32
2024-02-19T05:39:57.482Z,6.28
2024-02-19T05:40:57.855Z,6.30
2024-02-19T05:41:56.862Z,6.27
2024-02-19T05:42:56.964Z,6.28
2024-02-19T05:43:56.929Z,6.27
2024-02-19T05:44:56.838Z,6.27
2024-02-19T05:45:57.016Z,6.30
2024-02-19T05:46:56.799Z,6.28
2024-02-19T05:47:57.141Z,6.27
2024-02-19T05:48:57.136Z,6.28
2024-02-19T05:49:57.158Z,6.28
2024-02-19T05:50:57.148Z,6.27
2024-02-19T05:51:57.194Z,6.25
2024-02-19T05:52:57.341Z,6.28
2024-02-19T05:53:57.210Z,6.28
2024-02-19T05:54:57.220Z,6.28
2024-02-19T05:55:57.313Z,6.32
2024-02-19T05:56:57.601Z,6.25
2024-02-19T05:57:56.802Z,6.30
2024-02-19T05:58:57.435Z,6.27
2024-02-19T05:59:59.771Z,6.28
2024-02-19T06:00:57.565Z,6.28
2024-02-19T06:01:57.503Z,6.27
2024-02-19T06:02:57.698Z,6.24
2024-02-19T06:03:57.484Z,6.27
2024-02-19T06:04:57.206Z,6.25
2024-02-19T06:05:57.540Z,6.32
2024-02-19T06:06:57.494Z,6.30
2024-02-19T06:07:58.023Z,6.28
2024-02-19T06:08:57.476Z,6.27
2024-02-19T06:09:57.226Z,6.27
2024-02-19T06:10:57.304Z,6.30
2024-02-19T06:11:57.176Z,6.30
2024-02-19T06:12:57.374Z,6.27
2024-02-19T06:13:57.265Z,6.28
2024-02-19T06:14:57.154Z,6.28
2024-02-19T06:15:57.290Z,6.32
2024-02-19T06:16:56.387Z,6.32
2024-02-19T06:17:56.450Z,6.30
2024-02-19T06:18:57.515Z,6.30
2024-02-19T06:19:57.306Z,6.33
2024-02-19T06:20:57.097Z,6.32
2024-02-19T06:21:56.326Z,6.33
2024-02-19T06:22:56.380Z,6.35
2024-02-19T06:23:56.333Z,6.36
2024-02-19T06:24:57.285Z,6.35
2024-02-19T06:25:56.437Z,6.35
2024-02-19T06:26:56.313Z,6.33
2024-02-19T06:27:56.516Z,6.39
2024-02-19T06:28:56.552Z,6.36
2024-02-19T06:29:56.626Z,6.38
2024-02-19T06:30:56.687Z,6.35
2024-02-19T06:31:56.746Z,6.36
2024-02-19T06:32:56.284Z,6.36
2024-02-19T06:33:56.379Z,6.38
2024-02-19T06:34:56.333Z,6.39
2024-02-19T06:35:56.308Z,6.40
2024-02-19T06:36:56.325Z,6.39
2024-02-19T06:37:56.884Z,6.38
2024-02-19T06:38:56.498Z,6.39
2024-02-19T06:39:56.306Z,6.40
2024-02-19T06:40:56.806Z,6.43
2024-02-19T06:41:56.201Z,6.42
2024-02-19T06:42:56.609Z,6.43
2024-02-19T06:43:56.232Z,6.42
2024-02-19T06:44:56.847Z,6.45
2024-02-19T06:45:56.136Z,6.45
2024-02-19T06:46:56.187Z,6.46
2024-02-19T06:47:56.523Z,6.46
2024-02-19T06:48:56.610Z,6.51
2024-02-19T06:49:56.591Z,6.51
2024-02-19T06:50:56.563Z,6.45
2024-02-19T06:51:56.723Z,6.48
2024-02-19T06:52:56.832Z,6.51
2024-02-19T06:53:57.488Z,6.51
2024-02-19T06:54:56.387Z,6.55
2024-02-19T06:55:56.313Z,6.54
2024-02-19T06:56:56.719Z,6.57
2024-02-19T06:57:56.365Z,6.57
2024-02-19T06:58:55.907Z,6.57
2024-02-19T06:59:56.008Z,6.58
2024-02-19T07:00:56.704Z,6.64
2024-02-19T07:01:55.835Z,6.60
2024-02-19T07:02:56.649Z,6.58
2024-02-19T07:03:55.892Z,6.61
2024-02-19T07:04:55.962Z,6.60
2024-02-19T07:05:55.984Z,6.60
2024-02-19T07:06:55.994Z,6.63
2024-02-19T07:07:55.882Z,6.64
2024-02-19T07:08:56.028Z,6.64
2024-02-19T07:09:56.101Z,6.65
2024-02-19T07:10:56.217Z,6.68
2024-02-19T07:11:55.654Z,6.69
2024-02-19T07:12:56.072Z,6.71
2024-02-19T07:13:56.210Z,6.71
2024-02-19T07:14:56.260Z,6.71
2024-02-19T07:15:56.358Z,6.69
2024-02-19T07:16:56.315Z,6.72
2024-02-19T07:17:56.413Z,6.73
2024-02-19T07:18:56.508Z,6.75
2024-02-19T07:19:56.392Z,6.78
2024-02-19T07:20:56.448Z,6.78
2024-02-19T07:21:56.377Z,6.79
2024-02-19T07:22:55.529Z,6.79
2024-02-19T07:23:56.449Z,6.78
2024-02-19T07:25:05.800Z,6.79
2024-02-19T07:25:57.406Z,6.81
2024-02-19T07:26:56.383Z,6.82
2024-02-19T07:27:55.466Z,6.86
2024-02-19T07:28:56.100Z,6.83
2024-02-19T07:29:56.365Z,6.86
2024-02-19T07:30:56.265Z,6.86
2024-02-19T07:31:56.168Z,6.89
2024-02-19T07:32:56.345Z,6.87
2024-02-19T07:33:56.273Z,6.89
2024-02-19T07:34:56.039Z,6.91
2024-02-19T07:35:56.278Z,6.94
2024-02-19T07:36:56.191Z,6.96
2024-02-19T07:37:56.101Z,6.99
2024-02-19T07:38:56.277Z,7.04
2024-02-19T07:39:56.366Z,7.05
2024-02-19T07:40:56.057Z,7.05
2024-02-19T07:41:55.373Z,7.07
2024-02-19T07:42:55.373Z,7.05
2024-02-19T07:43:55.391Z,7.09
2024-02-19T07:44:55.401Z,7.09
2024-02-19T07:45:55.440Z,7.12
2024-02-19T07:46:55.455Z,7.11
2024-02-19T07:47:55.576Z,7.09
2024-02-19T07:48:55.763Z,7.07
2024-02-19T07:49:55.647Z,7.11
2024-02-19T07:50:55.601Z,7.09
2024-02-19T07:51:55.654Z,7.14
2024-02-19T07:52:55.692Z,7.14
2024-02-19T07:53:55.704Z,7.18
2024-02-19T07:54:55.831Z,7.18
2024-02-19T07:55:55.852Z,7.21
2024-02-19T07:56:55.832Z,7.21
2024-02-19T07:57:55.927Z,7.19
2024-02-19T07:58:55.877Z,7.21
2024-02-19T07:59:55.783Z,7.21
2024-02-19T08:00:55.990Z,7.19
2024-02-19T08:01:55.962Z,7.23
2024-02-19T08:02:54.993Z,7.19
2024-02-19T08:03:56.035Z,7.19
2024-02-19T08:04:56.139Z,7.23
2024-02-19T08:05:55.744Z,7.18
2024-02-19T08:06:59.596Z,7.21
2024-02-19T08:07:56.341Z,7.23
2024-02-19T08:08:55.679Z,7.23
2024-02-19T08:09:55.846Z,7.21
2024-02-19T08:10:56.465Z,7.24
2024-02-19T08:11:55.861Z,7.26
2024-02-19T08:12:55.041Z,7.32
2024-02-19T08:13:55.871Z,7.32
2024-02-19T08:14:55.613Z,7.30
2024-02-19T08:15:55.753Z,7.32
2024-02-19T08:16:55.687Z,7.37
2024-02-19T08:17:55.657Z,7.39
2024-02-19T08:18:56.000Z,7.39
2024-02-19T08:19:55.759Z,7.37
2024-02-19T08:20:54.771Z,7.33
2024-02-19T08:21:54.865Z,7.30
2024-02-19T08:22:54.761Z,7.30
2024-02-19T08:23:54.829Z,7.32
2024-02-19T08:24:54.927Z,7.34
2024-02-19T08:25:54.916Z,7.41
2024-02-19T08:26:54.967Z,7.37
2024-02-19T08:27:55.630Z,7.36
2024-02-19T08:28:54.974Z,7.44
2024-02-19T08:29:54.724Z,7.39
2024-02-19T08:30:55.139Z,7.47
2024-02-19T08:31:55.144Z,7.51
2024-02-19T08:32:55.246Z,7.50
2024-02-19T08:33:54.646Z,7.62
2024-02-19T08:34:55.641Z,7.62
2024-02-19T08:35:55.333Z,7.63
2024-02-19T08:36:55.424Z,7.69
2024-02-19T08:37:55.484Z,7.66
2024-02-19T08:38:55.630Z,7.76
2024-02-19T08:39:55.364Z,7.63
2024-02-19T08:40:54.510Z,7.70
2024-02-19T08:41:55.558Z,7.76
2024-02-19T08:42:55.512Z,7.88
2024-02-19T08:43:55.485Z,7.89
2024-02-19T08:44:55.679Z,8.09
2024-02-19T08:45:55.193Z,8.02
2024-02-19T08:46:55.397Z,8.07
2024-02-19T08:47:54.437Z,8.06
2024-02-19T08:48:55.715Z,8.07
2024-02-19T08:49:55.544Z,8.17
2024-02-19T08:50:55.237Z,8.04
2024-02-19T08:51:55.196Z,7.96
2024-02-19T08:52:55.347Z,7.92
2024-02-19T08:53:59.387Z,7.91
2024-02-19T08:54:56.073Z,7.94
2024-02-19T08:55:55.263Z,7.94
2024-02-19T08:56:55.171Z,7.88
2024-02-19T08:57:55.074Z,7.89
2024-02-19T08:58:54.557Z,7.89
2024-02-19T08:59:55.119Z,7.81
2024-02-19T09:00:55.097Z,7.81
2024-02-19T09:01:54.383Z,7.81
2024-02-19T09:02:54.216Z,7.76
2024-02-19T09:03:54.289Z,7.76
2024-02-19T09:04:54.261Z,7.73
2024-02-19T09:05:54.274Z,7.70
2024-02-19T09:06:54.479Z,7.82
2024-02-19T09:07:54.276Z,7.95
2024-02-19T09:08:54.337Z,8.12
2024-02-19T09:09:54.203Z,8.22
2024-02-19T09:10:54.182Z,8.32
2024-02-19T09:11:54.188Z,8.31
2024-02-19T09:12:54.246Z,8.18
2024-02-19T09:13:54.172Z,8.02
2024-02-19T09:14:54.056Z,7.92
2024-02-19T09:15:54.200Z,7.85
2024-02-19T09:16:54.185Z,7.81
2024-02-19T09:17:54.036Z,7.89
2024-02-19T09:18:54.290Z,7.94
2024-02-19T09:19:54.266Z,7.86
2024-02-19T09:20:54.183Z,7.91
2024-02-19T09:21:54.201Z,7.89
2024-02-19T09:22:54.711Z,7.85
2024-02-19T09:23:54.181Z,7.79
2024-02-19T09:24:53.977Z,7.81
2024-02-19T09:25:53.953Z,7.79
2024-02-19T09:26:54.080Z,7.79
2024-02-19T09:27:53.934Z,7.84
2024-02-19T09:28:54.216Z,7.85
2024-02-19T09:29:54.194Z,7.88
2024-02-19T09:30:54.191Z,7.82
2024-02-19T09:31:54.179Z,7.84
2024-02-19T09:32:54.217Z,7.85
2024-02-19T09:33:58.498Z,7.96
2024-02-19T09:34:54.766Z,7.91
2024-02-19T09:35:54.178Z,7.89
2024-02-19T09:36:54.205Z,7.88
2024-02-19T09:37:54.205Z,7.91
2024-02-19T09:38:53.892Z,7.92
2024-02-19T09:39:54.230Z,7.84
2024-02-19T09:40:54.178Z,7.82
2024-02-19T09:41:54.195Z,7.86
2024-02-19T09:42:53.723Z,7.86
2024-02-19T09:43:53.758Z,7.86
2024-02-19T09:44:53.681Z,7.82
2024-02-19T09:45:53.762Z,7.89
2024-02-19T09:46:53.619Z,7.91
2024-02-19T09:47:54.022Z,7.92
2024-02-19T09:48:54.277Z,7.99
2024-02-19T09:49:53.983Z,7.96
2024-02-19T09:50:54.044Z,7.95
2024-02-19T09:51:54.087Z,7.94
2024-02-19T09:52:53.545Z,7.99
2024-02-19T09:53:54.146Z,7.95
2024-02-19T09:54:54.222Z,8.02
2024-02-19T09:55:53.569Z,8.04
2024-02-19T09:56:54.174Z,8.13
2024-02-19T09:57:54.218Z,8.18
2024-02-19T09:58:54.205Z,8.25
2024-02-19T09:59:54.188Z,8.27
2024-02-19T10:00:54.039Z,8.28
2024-02-19T10:01:54.308Z,8.31
2024-02-19T10:02:54.163Z,8.27
2024-02-19T10:03:54.223Z,8.34
2024-02-19T10:04:54.263Z,8.34
2024-02-19T10:05:54.319Z,8.36
2024-02-19T10:06:53.976Z,8.43
2024-02-19T10:07:54.263Z,8.42
2024-02-19T10:08:54.176Z,8.50
2024-02-19T10:09:54.344Z,8.46
2024-02-19T10:10:53.326Z,8.52
2024-02-19T10:11:54.092Z,8.58
2024-02-19T10:12:54.220Z,8.55
2024-02-19T10:13:54.215Z,8.55
2024-02-19T10:14:54.065Z,8.64
2024-02-19T10:15:53.737Z,8.67
2024-02-19T10:16:53.978Z,8.64
2024-02-19T10:17:54.145Z,8.63
2024-02-19T10:18:54.421Z,8.63
2024-02-19T10:19:54.189Z,8.61
2024-02-19T10:20:53.217Z,8.64
2024-02-19T10:21:53.210Z,8.57
2024-02-19T10:22:53.240Z,8.60
2024-02-19T10:23:53.268Z,8.61
2024-02-19T10:24:53.134Z,8.65
2024-02-19T10:25:53.349Z,8.65
2024-02-19T10:26:53.396Z,8.80
2024-02-19T10:27:53.425Z,8.83
2024-02-19T10:28:53.437Z,9.10
2024-02-19T10:29:53.580Z,9.17
2024-02-19T10:30:53.576Z,9.17
2024-02-19T10:31:53.577Z,9.22
2024-02-19T10:32:53.626Z,9.26
2024-02-19T10:33:53.720Z,9.23
2024-02-19T10:34:53.726Z,9.16
2024-02-19T10:35:53.687Z,9.06
2024-02-19T10:36:53.068Z,9.01
2024-02-19T10:37:53.766Z,8.89
2024-02-19T10:38:53.781Z,8.88
2024-02-19T10:39:53.027Z,8.91
2024-02-19T10:40:53.870Z,8.89
2024-02-19T10:41:53.800Z,8.85
2024-02-19T10:42:53.712Z,8.76
2024-02-19T10:43:53.873Z,8.78
2024-02-19T10:44:53.910Z,8.78
2024-02-19T10:45:53.700Z,8.83
2024-02-19T10:46:53.769Z,8.82
2024-02-19T10:47:53.810Z,8.86
2024-02-19T10:48:53.861Z,8.91
2024-02-19T10:49:54.986Z,8.91
2024-02-19T10:50:53.688Z,8.80
2024-02-19T10:51:53.644Z,8.68
2024-02-19T10:52:53.193Z,8.70
2024-02-19T10:53:53.666Z,8.63
2024-02-19T10:55:02.455Z,8.61
2024-02-19T10:55:56.074Z,8.61
2024-02-19T10:56:53.713Z,8.58
2024-02-19T10:57:53.615Z,8.65
2024-02-19T10:58:53.700Z,8.70
2024-02-19T10:59:52.756Z,8.76
2024-02-19T11:00:55.738Z,8.85
2024-02-19T11:01:52.906Z,8.83
2024-02-19T11:02:52.663Z,8.83
2024-02-19T11:03:52.831Z,8.86
2024-02-19T11:04:53.697Z,8.94
2024-02-19T11:05:52.819Z,9.04
2024-02-19T11:06:52.828Z,9.15
2024-02-19T11:07:52.858Z,9.31
2024-02-19T11:08:52.880Z,9.44
2024-02-19T11:09:52.962Z,9.58
2024-02-19T11:10:53.204Z,9.67
2024-02-19T11:11:53.064Z,9.58
2024-02-19T11:12:53.045Z,9.52
2024-02-19T11:13:53.079Z,9.48
2024-02-19T11:14:53.117Z,9.44
2024-02-19T11:15:53.196Z,9.35
2024-02-19T11:16:53.175Z,9.34
2024-02-19T11:17:53.301Z,9.15
2024-02-19T11:18:55.543Z,9.04
2024-02-19T11:19:53.337Z,9.00
2024-02-19T11:20:53.333Z,8.97
2024-02-19T11:21:53.305Z,9.04
2024-02-19T11:22:53.201Z,8.98
2024-02-19T11:23:53.350Z,9.06
2024-02-19T11:24:53.272Z,9.04
2024-02-19T11:25:53.432Z,8.97
2024-02-19T11:26:53.303Z,8.97
2024-02-19T11:27:53.237Z,8.97
2024-02-19T11:28:53.556Z,9.04
2024-02-19T11:29:53.306Z,9.12
2024-02-19T11:30:53.612Z,9.10
2024-02-19T11:31:53.099Z,9.12
2024-02-19T11:32:52.271Z,9.10
2024-02-19T11:33:53.218Z,9.01
2024-02-19T11:34:53.255Z,9.04
2024-02-19T11:35:53.326Z,9.04
2024-02-19T11:36:53.126Z,9.03
2024-02-19T11:37:53.016Z,8.93
2024-02-19T11:38:52.226Z,8.91
2024-02-19T11:39:53.121Z,8.89
2024-02-19T11:40:52.974Z,8.96
2024-02-19T11:41:53.146Z,8.96
2024-02-19T11:42:52.168Z,9.00
2024-02-19T11:43:52.926Z,8.97
2024-02-19T11:44:52.158Z,9.08
2024-02-19T11:45:52.173Z,9.06
2024-02-19T11:46:52.369Z,9.16
2024-02-19T11:47:52.431Z,9.20
2024-02-19T11:48:52.225Z,9.16
2024-02-19T11:49:52.402Z,9.15
2024-02-19T11:50:52.370Z,9.03
2024-02-19T11:52:01.406Z,9.01
2024-02-19T11:52:53.170Z,9.04
2024-02-19T11:53:52.483Z,9.04
2024-02-19T11:54:52.520Z,8.98
2024-02-19T11:55:52.581Z,9.00
2024-02-19T11:56:51.938Z,9.13
2024-02-19T11:57:52.672Z,9.08
2024-02-19T11:58:52.647Z,9.13
2024-02-19T11:59:52.701Z,9.16
2024-02-19T12:00:56.769Z,9.08
2024-02-19T12:01:52.972Z,9.08
2024-02-19T12:02:52.699Z,9.03
2024-02-19T12:03:52.854Z,9.01
2024-02-19T12:04:52.772Z,8.93
2024-02-19T12:05:52.758Z,8.98
2024-02-19T12:06:52.352Z,8.93
2024-02-19T12:07:53.059Z,8.94
2024-02-19T12:08:52.955Z,8.89
2024-02-19T12:09:52.789Z,8.94
2024-02-19T12:10:52.745Z,8.98
2024-02-19T12:11:53.072Z,9.08
2024-02-19T12:12:52.780Z,9.13
2024-02-19T12:13:52.641Z,9.16
2024-02-19T12:14:52.552Z,9.19
2024-02-19T12:15:52.777Z,9.24
2024-02-19T12:16:53.228Z,9.20
2024-02-19T12:17:53.716Z,9.20
2024-02-19T12:18:51.982Z,9.13
2024-02-19T12:19:56.583Z,9.13
2024-02-19T12:20:52.481Z,9.08
2024-02-19T12:21:52.646Z,9.06
2024-02-19T12:22:53.429Z,9.01
2024-02-19T12:23:52.783Z,9.01
2024-02-19T12:24:51.631Z,9.00
2024-02-19T12:25:51.683Z,9.04
2024-02-19T12:26:51.689Z,9.00
2024-02-19T12:27:51.751Z,9.10
2024-02-19T12:28:51.796Z,9.06
2024-02-19T12:29:51.641Z,9.12
2024-02-19T12:30:51.909Z,9.15
2024-02-19T12:31:51.874Z,9.13
2024-02-19T12:32:51.993Z,9.22
2024-02-19T12:33:52.289Z,9.20
2024-02-19T12:34:52.199Z,9.30
2024-02-19T12:35:52.144Z,9.34
2024-02-19T12:36:52.141Z,9.37
2024-02-19T12:37:52.156Z,9.44
2024-02-19T12:38:51.501Z,9.53
2024-02-19T12:39:52.213Z,9.50
2024-02-19T12:40:52.338Z,9.49
2024-02-19T12:41:52.247Z,9.42
2024-02-19T12:42:52.182Z,9.38
2024-02-19T12:43:51.378Z,9.48
2024-02-19T12:44:52.416Z,9.49
2024-02-19T12:45:52.158Z,9.48
2024-02-19T12:46:52.279Z,9.58
2024-02-19T12:47:52.656Z,9.62
2024-02-19T12:48:52.562Z,9.71
2024-02-19T12:49:52.417Z,9.70
2024-02-19T12:50:52.346Z,9.70
2024-02-19T12:51:52.582Z,9.73
2024-02-19T12:52:51.756Z,9.74
2024-02-19T12:53:51.742Z,9.71
2024-02-19T12:54:51.759Z,9.73
2024-02-19T12:55:52.685Z,9.81
2024-02-19T12:56:52.070Z,9.93
2024-02-19T12:57:51.185Z,9.98
2024-02-19T12:58:51.918Z,9.98
2024-02-19T12:59:52.085Z,9.95
2024-02-19T13:00:52.085Z,9.96
2024-02-19T13:01:51.548Z,9.88
2024-02-19T13:02:52.097Z,9.75
2024-02-19T13:03:51.200Z,9.80
2024-02-19T13:04:51.244Z,9.77
2024-02-19T13:05:51.248Z,9.73
2024-02-19T13:06:51.173Z,9.67
2024-02-19T13:07:51.205Z,9.70
2024-02-19T13:08:51.213Z,9.63
2024-02-19T13:09:51.329Z,9.71
2024-02-19T13:10:51.305Z,9.63
2024-02-19T13:11:51.373Z,9.62
2024-02-19T13:12:51.357Z,9.58
2024-02-19T13:13:51.405Z,9.65
2024-02-19T13:14:51.435Z,9.65
2024-02-19T13:15:51.631Z,9.63
2024-02-19T13:17:02.049Z,9.58
2024-02-19T13:17:52.976Z,9.56